sensor_id;sensor_type;location;lat;lon;timestamp;P1;durP1;ratioP1;P2;durP2;ratioP2
82511;SDS011;72152;65.012;25.464;2023-09-18T15:53:22;1.60;;;0.80;;
82511;SDS011;72152;65.012;25.464;2023-09-18T15:59:05;1.40;;;0.60;;
82511;SDS011;72152;65.012;25.464;2023-09-18T16:01:53;2.00;;;1.00;;
82511;SDS011;72152;65.012;25.464;2023-09-18T16:04:44;2.70;;;0.50;;
82511;SDS011;72152;65.012;25.464;2023-09-18T16:07:33;1.10;;;0.40;;
82511;SDS011;72152;65.012;25.464;2023-09-18T16:10:20;0.60;;;0.40;;
82511;SDS011;72152;65.012;25.464;2023-09-18T16:13:06;2.10;;;0.60;;
82511;SDS011;72152;65.012;25.464;2023-09-18T16:15:52;4.10;;;0.60;;
82511;SDS011;72152;65.012;25.464;2023-09-18T16:18:38;0.60;;;0.30;;
82511;SDS011;72152;65.012;25.464;2023-09-18T16:21:27;2.60;;;0.70;;
82511;SDS011;72152;65.012;25.464;2023-09-18T16:24:17;1.40;;;0.50;;
82511;SDS011;72152;65.012;25.464;2023-09-18T16:26:58;2.30;;;0.60;;
82511;SDS011;72152;65.012;25.464;2023-09-18T16:29:43;2.50;;;0.60;;
82511;SDS011;72152;65.012;25.464;2023-09-18T16:32:29;1.00;;;0.60;;
82511;SDS011;72152;65.012;25.464;2023-09-18T16:35:14;4.10;;;0.90;;
82511;SDS011;72152;65.012;25.464;2023-09-18T16:38:02;1.60;;;0.90;;
82511;SDS011;72152;65.012;25.464;2023-09-18T16:40:49;2.50;;;0.90;;
82511;SDS011;72152;65.012;25.464;2023-09-18T16:43:33;1.80;;;1.00;;
82511;SDS011;72152;65.012;25.464;2023-09-18T16:46:20;1.60;;;0.70;;
82511;SDS011;72152;65.012;25.464;2023-09-18T16:49:05;1.40;;;0.80;;
82511;SDS011;72152;65.012;25.464;2023-09-18T16:51:56;2.00;;;0.90;;
82511;SDS011;72152;65.012;25.464;2023-09-18T16:54:36;2.80;;;0.90;;
82511;SDS011;72152;65.012;25.464;2023-09-18T16:57:23;2.10;;;0.90;;
82511;SDS011;72152;65.012;25.464;2023-09-18T17:00:09;2.30;;;1.10;;
82511;SDS011;72152;65.012;25.464;2023-09-18T17:03:00;4.70;;;1.30;;
82511;SDS011;72152;65.012;25.464;2023-09-18T17:05:51;4.00;;;1.10;;
82511;SDS011;72152;65.012;25.464;2023-09-18T17:08:36;1.60;;;0.90;;
82511;SDS011;72152;65.012;25.464;2023-09-18T17:11:23;2.00;;;0.90;;
82511;SDS011;72152;65.012;25.464;2023-09-18T17:14:12;5.10;;;1.00;;
82511;SDS011;72152;65.012;25.464;2023-09-18T17:17:00;4.70;;;1.10;;
82511;SDS011;72152;65.012;25.464;2023-09-18T17:19:47;1.40;;;0.70;;
82511;SDS011;72152;65.012;25.464;2023-09-18T17:22:30;2.30;;;1.20;;
82511;SDS011;72152;65.012;25.464;2023-09-18T17:25:18;2.60;;;1.20;;
82511;SDS011;72152;65.012;25.464;2023-09-18T17:28:06;2.20;;;0.80;;
82511;SDS011;72152;65.012;25.464;2023-09-18T17:30:52;1.00;;;0.80;;
82511;SDS011;72152;65.012;25.464;2023-09-18T17:33:37;2.80;;;0.70;;
82511;SDS011;72152;65.012;25.464;2023-09-18T17:36:28;1.20;;;0.70;;
82511;SDS011;72152;65.012;25.464;2023-09-18T17:42:13;1.70;;;0.90;;
82511;SDS011;72152;65.012;25.464;2023-09-18T17:45:00;0.80;;;0.60;;
82511;SDS011;72152;65.012;25.464;2023-09-18T17:47:52;1.70;;;0.90;;
82511;SDS011;72152;65.012;25.464;2023-09-18T17:50:41;1.00;;;0.60;;
82511;SDS011;72152;65.012;25.464;2023-09-18T17:53:30;3.00;;;0.70;;
82511;SDS011;72152;65.012;25.464;2023-09-18T17:56:17;2.40;;;0.60;;
82511;SDS011;72152;65.012;25.464;2023-09-18T17:59:04;2.20;;;0.90;;
82511;SDS011;72152;65.012;25.464;2023-09-18T18:04:30;0.90;;;0.50;;
82511;SDS011;72152;65.012;25.464;2023-09-18T18:07:13;3.00;;;0.80;;
82511;SDS011;72152;65.012;25.464;2023-09-18T18:10:01;2.90;;;0.60;;
82511;SDS011;72152;65.012;25.464;2023-09-18T18:12:50;1.10;;;0.50;;
82511;SDS011;72152;65.012;25.464;2023-09-18T18:15:41;1.10;;;0.60;;
82511;SDS011;72152;65.012;25.464;2023-09-18T18:18:28;1.20;;;0.70;;
82511;SDS011;72152;65.012;25.464;2023-09-18T18:21:09;1.40;;;0.70;;
82511;SDS011;72152;65.012;25.464;2023-09-18T18:24:00;1.90;;;0.70;;
82511;SDS011;72152;65.012;25.464;2023-09-18T18:26:52;2.00;;;0.60;;
82511;SDS011;72152;65.012;25.464;2023-09-18T18:29:39;1.70;;;0.90;;
82511;SDS011;72152;65.012;25.464;2023-09-18T18:32:23;1.70;;;0.70;;
82511;SDS011;72152;65.012;25.464;2023-09-18T18:35:14;1.30;;;0.80;;
82511;SDS011;72152;65.012;25.464;2023-09-18T18:38:13;1.70;;;0.70;;
82511;SDS011;72152;65.012;25.464;2023-09-18T18:41:01;1.50;;;0.60;;
82511;SDS011;72152;65.012;25.464;2023-09-18T18:43:49;1.30;;;0.60;;
82511;SDS011;72152;65.012;25.464;2023-09-18T18:46:44;1.90;;;0.80;;
82511;SDS011;72152;65.012;25.464;2023-09-18T18:49:34;1.50;;;0.70;;
82511;SDS011;72152;65.012;25.464;2023-09-18T18:52:22;2.00;;;0.90;;
82511;SDS011;72152;65.012;25.464;2023-09-18T18:55:15;2.70;;;0.90;;
82511;SDS011;72152;65.012;25.464;2023-09-18T18:58:04;1.20;;;0.70;;
82511;SDS011;72152;65.012;25.464;2023-09-18T19:00:50;0.70;;;0.60;;
82511;SDS011;72152;65.012;25.464;2023-09-18T19:03:36;1.50;;;0.80;;
82511;SDS011;72152;65.012;25.464;2023-09-18T19:06:22;2.30;;;0.80;;
82511;SDS011;72152;65.012;25.464;2023-09-18T19:09:06;3.70;;;1.70;;
82511;SDS011;72152;65.012;25.464;2023-09-18T19:11:55;5.60;;;2.30;;
82511;SDS011;72152;65.012;25.464;2023-09-18T19:14:37;2.10;;;1.10;;
82511;SDS011;72152;65.012;25.464;2023-09-18T19:17:29;3.00;;;1.20;;
82511;SDS011;72152;65.012;25.464;2023-09-18T19:20:19;2.30;;;1.10;;
82511;SDS011;72152;65.012;25.464;2023-09-18T19:23:04;2.30;;;1.20;;
82511;SDS011;72152;65.012;25.464;2023-09-18T19:28:49;2.20;;;1.00;;
82511;SDS011;72152;65.012;25.464;2023-09-18T19:31:36;2.30;;;1.20;;
82511;SDS011;72152;65.012;25.464;2023-09-18T19:34:15;2.00;;;1.20;;
82511;SDS011;72152;65.012;25.464;2023-09-18T19:36:55;1.70;;;0.80;;
82511;SDS011;72152;65.012;25.464;2023-09-18T19:39:43;1.40;;;0.80;;
82511;SDS011;72152;65.012;25.464;2023-09-18T19:42:39;1.10;;;0.60;;
82511;SDS011;72152;65.012;25.464;2023-09-18T19:45:24;3.00;;;0.60;;
82511;SDS011;72152;65.012;25.464;2023-09-18T19:53:55;1.90;;;0.90;;
82511;SDS011;72152;65.012;25.464;2023-09-18T19:56:38;1.30;;;0.70;;
82511;SDS011;72152;65.012;25.464;2023-09-18T19:59:26;1.90;;;0.70;;
82511;SDS011;72152;65.012;25.464;2023-09-18T20:02:14;1.50;;;0.80;;
82511;SDS011;72152;65.012;25.464;2023-09-18T20:04:56;2.50;;;0.80;;
82511;SDS011;72152;65.012;25.464;2023-09-18T20:07:44;3.10;;;0.90;;
82511;SDS011;72152;65.012;25.464;2023-09-18T20:10:27;2.20;;;1.00;;
82511;SDS011;72152;65.012;25.464;2023-09-18T20:13:15;1.20;;;0.70;;
82511;SDS011;72152;65.012;25.464;2023-09-18T20:15:59;0.70;;;0.50;;
82511;SDS011;72152;65.012;25.464;2023-09-18T20:18:45;1.70;;;0.50;;
82511;SDS011;72152;65.012;25.464;2023-09-18T20:21:37;1.60;;;0.50;;
82511;SDS011;72152;65.012;25.464;2023-09-18T20:24:26;0.60;;;0.50;;
82511;SDS011;72152;65.012;25.464;2023-09-18T20:27:14;1.10;;;0.60;;
82511;SDS011;72152;65.012;25.464;2023-09-18T20:30:03;1.20;;;0.70;;
82511;SDS011;72152;65.012;25.464;2023-09-18T20:33:02;2.20;;;0.80;;
82511;SDS011;72152;65.012;25.464;2023-09-18T20:35:49;2.20;;;0.70;;
82511;SDS011;72152;65.012;25.464;2023-09-18T20:38:43;2.20;;;0.80;;
82511;SDS011;72152;65.012;25.464;2023-09-18T20:41:28;2.30;;;0.90;;
82511;SDS011;72152;65.012;25.464;2023-09-18T20:44:20;1.30;;;0.70;;
82511;SDS011;72152;65.012;25.464;2023-09-18T20:47:09;1.90;;;1.00;;
82511;SDS011;72152;65.012;25.464;2023-09-18T20:49:58;2.30;;;0.80;;
82511;SDS011;72152;65.012;25.464;2023-09-18T20:52:44;2.40;;;0.70;;
82511;SDS011;72152;65.012;25.464;2023-09-18T20:55:31;2.40;;;0.90;;
82511;SDS011;72152;65.012;25.464;2023-09-18T20:58:20;2.60;;;1.00;;
82511;SDS011;72152;65.012;25.464;2023-09-18T21:01:12;4.40;;;1.10;;
82511;SDS011;72152;65.012;25.464;2023-09-18T21:03:59;2.60;;;1.10;;
82511;SDS011;72152;65.012;25.464;2023-09-18T21:06:55;1.40;;;0.70;;
82511;SDS011;72152;65.012;25.464;2023-09-18T21:09:36;2.20;;;0.90;;
82511;SDS011;72152;65.012;25.464;2023-09-18T21:12:21;2.30;;;0.90;;
82511;SDS011;72152;65.012;25.464;2023-09-18T21:15:08;3.00;;;1.30;;
82511;SDS011;72152;65.012;25.464;2023-09-18T21:17:55;5.20;;;1.10;;
82511;SDS011;72152;65.012;25.464;2023-09-18T21:20:44;2.50;;;1.10;;
82511;SDS011;72152;65.012;25.464;2023-09-18T21:23:31;2.50;;;0.90;;
82511;SDS011;72152;65.012;25.464;2023-09-18T21:26:19;2.70;;;0.90;;
82511;SDS011;72152;65.012;25.464;2023-09-18T21:29:08;2.90;;;1.20;;
82511;SDS011;72152;65.012;25.464;2023-09-18T21:31:58;3.70;;;1.20;;
82511;SDS011;72152;65.012;25.464;2023-09-18T21:34:47;4.10;;;1.20;;
82511;SDS011;72152;65.012;25.464;2023-09-18T21:37:36;3.30;;;0.80;;
82511;SDS011;72152;65.012;25.464;2023-09-18T21:40:25;3.00;;;1.10;;
82511;SDS011;72152;65.012;25.464;2023-09-18T21:43:12;2.80;;;1.00;;
82511;SDS011;72152;65.012;25.464;2023-09-18T21:45:52;2.30;;;0.80;;
82511;SDS011;72152;65.012;25.464;2023-09-18T21:51:22;2.70;;;0.80;;
82511;SDS011;72152;65.012;25.464;2023-09-18T21:54:12;2.50;;;0.60;;
82511;SDS011;72152;65.012;25.464;2023-09-18T21:57:01;1.80;;;0.60;;
82511;SDS011;72152;65.012;25.464;2023-09-18T21:59:52;0.40;;;0.40;;
82511;SDS011;72152;65.012;25.464;2023-09-18T22:02:48;0.70;;;0.30;;
82511;SDS011;72152;65.012;25.464;2023-09-18T22:05:37;2.10;;;0.50;;
82511;SDS011;72152;65.012;25.464;2023-09-18T22:08:25;1.30;;;0.60;;
82511;SDS011;72152;65.012;25.464;2023-09-18T22:11:13;0.80;;;0.40;;
82511;SDS011;72152;65.012;25.464;2023-09-18T22:14:01;0.30;;;0.30;;
82511;SDS011;72152;65.012;25.464;2023-09-18T22:16:50;0.60;;;0.40;;
82511;SDS011;72152;65.012;25.464;2023-09-18T22:19:35;2.20;;;0.60;;
82511;SDS011;72152;65.012;25.464;2023-09-18T22:22:18;1.40;;;0.60;;
82511;SDS011;72152;65.012;25.464;2023-09-18T22:25:13;1.60;;;0.50;;
82511;SDS011;72152;65.012;25.464;2023-09-18T22:28:08;1.10;;;0.60;;
82511;SDS011;72152;65.012;25.464;2023-09-18T22:31:01;0.40;;;0.30;;
82511;SDS011;72152;65.012;25.464;2023-09-18T22:33:52;1.60;;;0.80;;
82511;SDS011;72152;65.012;25.464;2023-09-18T22:36:44;1.90;;;0.70;;
82511;SDS011;72152;65.012;25.464;2023-09-18T22:57:09;2.00;;;0.80;;
82511;SDS011;72152;65.012;25.464;2023-09-18T22:59:58;2.00;;;0.90;;
82511;SDS011;72152;65.012;25.464;2023-09-18T23:02:47;0.90;;;0.50;;
82511;SDS011;72152;65.012;25.464;2023-09-18T23:05:35;1.10;;;0.40;;
82511;SDS011;72152;65.012;25.464;2023-09-18T23:08:20;1.00;;;0.60;;
82511;SDS011;72152;65.012;25.464;2023-09-18T23:11:04;0.70;;;0.40;;
82511;SDS011;72152;65.012;25.464;2023-09-18T23:13:58;1.20;;;0.70;;
82511;SDS011;72152;65.012;25.464;2023-09-18T23:16:48;1.80;;;0.70;;
82511;SDS011;72152;65.012;25.464;2023-09-18T23:19:42;1.20;;;0.70;;
82511;SDS011;72152;65.012;25.464;2023-09-18T23:22:24;1.40;;;0.60;;
82511;SDS011;72152;65.012;25.464;2023-09-18T23:25:11;2.30;;;0.60;;
82511;SDS011;72152;65.012;25.464;2023-09-18T23:27:59;0.70;;;0.50;;
82511;SDS011;72152;65.012;25.464;2023-09-18T23:30:45;2.30;;;0.80;;
82511;SDS011;72152;65.012;25.464;2023-09-18T23:33:38;1.00;;;0.60;;
82511;SDS011;72152;65.012;25.464;2023-09-18T23:36:28;0.80;;;0.60;;
82511;SDS011;72152;65.012;25.464;2023-09-18T23:39:21;1.20;;;0.70;;
82511;SDS011;72152;65.012;25.464;2023-09-18T23:42:07;0.90;;;0.50;;
82511;SDS011;72152;65.012;25.464;2023-09-18T23:44:50;0.50;;;0.30;;
82511;SDS011;72152;65.012;25.464;2023-09-18T23:47:39;1.70;;;0.70;;
82511;SDS011;72152;65.012;25.464;2023-09-18T23:50:27;3.20;;;0.70;;
82511;SDS011;72152;65.012;25.464;2023-09-18T23:53:16;3.30;;;0.90;;
82511;SDS011;72152;65.012;25.464;2023-09-18T23:56:12;1.70;;;0.60;;
82511;SDS011;72152;65.012;25.464;2023-09-18T23:59:01;1.30;;;0.60;;
